createdAt,value
2022-10-01T00:01:03.735Z,100761.19
2022-10-01T00:03:31.748Z,100756.78
2022-10-01T00:06:06.457Z,100750.59
2022-10-01T00:08:34.176Z,100747.13
2022-10-01T00:11:01.766Z,100747.13
2022-10-01T00:13:30.595Z,100748.09
2022-10-01T00:15:57.621Z,100750.78
2022-10-01T00:18:24.237Z,100738.47
2022-10-01T00:20:50.987Z,100748.22
2022-10-01T00:23:19.368Z,100737.59
2022-10-01T00:25:45.999Z,100737.63
2022-10-01T00:28:12.759Z,100737.69
2022-10-01T00:30:46.974Z,100740.34
2022-10-01T00:33:13.806Z,100742.16
2022-10-01T00:35:40.539Z,100734.19
2022-10-01T00:38:07.213Z,100734.22
2022-10-01T00:40:33.849Z,100727.22
2022-10-01T00:43:00.551Z,100719.34
2022-10-01T00:45:27.604Z,100711.44
2022-10-01T00:47:56.277Z,100715.88
2022-10-01T00:50:28.427Z,100713.25
2022-10-01T00:52:57.771Z,100721.25
2022-10-01T00:55:34.404Z,100721.28
2022-10-01T00:58:01.219Z,100715.09
2022-10-01T01:00:27.930Z,100714.13
2022-10-01T01:02:55.199Z,100712.41
2022-10-01T01:05:22.199Z,100708.00
2022-10-01T01:07:50.493Z,100708.09
2022-10-01T01:10:20.314Z,100707.16
2022-10-01T01:13:07.243Z,100709.84
2022-10-01T01:15:42.604Z,100708.16
2022-10-01T01:18:30.248Z,100703.78
2022-10-01T01:21:12.467Z,100703.84
2022-10-01T01:23:51.206Z,100702.03
2022-10-01T01:26:28.801Z,100698.53
2022-10-01T01:29:02.408Z,100697.72
2022-10-01T01:31:34.549Z,100695.03
2022-10-01T01:34:03.664Z,100691.53
2022-10-01T01:36:35.809Z,100685.38
2022-10-01T01:39:04.726Z,100682.72
2022-10-01T01:41:35.939Z,100674.81
2022-10-01T01:44:04.926Z,100670.44
2022-10-01T01:46:33.954Z,100671.28
2022-10-01T01:49:01.765Z,100667.81
2022-10-01T01:51:41.632Z,100670.53
2022-10-01T01:54:09.075Z,100667.88
2022-10-01T01:56:35.904Z,100666.97
2022-10-01T01:59:03.471Z,100672.25
2022-10-01T02:01:41.100Z,100671.41
2022-10-01T02:04:23.939Z,100669.66
2022-10-01T02:07:16.311Z,100675.81
2022-10-01T02:10:15.559Z,100668.75
2022-10-01T02:13:01.616Z,100667.97
2022-10-01T02:15:37.199Z,100672.44
2022-10-01T02:18:23.137Z,100671.44
2022-10-01T02:20:56.287Z,100668.78
2022-10-01T02:23:28.336Z,100654.72
2022-10-01T02:25:59.193Z,100667.97
2022-10-01T02:28:26.173Z,100657.38
2022-10-01T02:30:54.598Z,100668.03
2022-10-01T02:33:25.166Z,100666.28
2022-10-01T02:35:52.844Z,100660.84
2022-10-01T02:38:22.070Z,100666.19
2022-10-01T02:40:50.114Z,100662.69
2022-10-01T02:43:23.050Z,100660.72
2022-10-01T02:45:55.604Z,100660.72
2022-10-01T02:48:22.333Z,100657.25
2022-10-01T02:50:52.156Z,100654.56
2022-10-01T02:53:27.352Z,100643.88
2022-10-01T02:55:54.220Z,100647.34
2022-10-01T02:58:21.261Z,100652.66
2022-10-01T03:00:47.898Z,100649.88
2022-10-01T03:03:14.559Z,100648.06
2022-10-01T03:05:41.270Z,100640.22
2022-10-01T03:08:08.025Z,100640.91
2022-10-01T03:10:34.981Z,100638.19
2022-10-01T03:13:01.999Z,100629.44
2022-10-01T03:15:29.359Z,100627.59
2022-10-01T03:17:56.068Z,100636.31
2022-10-01T03:20:22.984Z,100634.53
2022-10-01T03:22:49.902Z,100616.72
2022-10-01T03:25:16.895Z,100618.53
2022-10-01T03:27:43.735Z,100610.50
2022-10-01T03:30:11.272Z,100615.56
2022-10-01T03:32:37.990Z,100608.44
2022-10-01T03:35:05.205Z,100606.44
2022-10-01T03:37:31.861Z,100601.91
2022-10-01T03:39:58.531Z,100605.50
2022-10-01T03:42:25.300Z,100592.16
2022-10-01T03:44:52.180Z,100591.56
2022-10-01T03:47:18.870Z,100584.41
2022-10-01T03:49:45.520Z,100586.78
2022-10-01T03:52:12.173Z,100596.41
2022-10-01T03:54:39.510Z,100585.44
2022-10-01T03:57:06.965Z,100592.31
2022-10-01T03:59:33.607Z,100589.72
2022-10-01T04:02:00.400Z,100586.59
2022-10-01T04:04:29.085Z,100588.66
2022-10-01T04:06:55.818Z,100580.72
2022-10-01T04:09:22.463Z,100584.00
2022-10-01T04:11:49.383Z,100577.56
2022-10-01T04:14:16.073Z,100575.56
2022-10-01T04:16:43.561Z,100573.63
2022-10-01T04:19:10.197Z,100581.47
2022-10-01T04:21:38.320Z,100564.53
2022-10-01T04:24:05.671Z,100572.41
2022-10-01T04:26:32.344Z,100563.53
2022-10-01T04:28:59.024Z,100565.19
2022-10-01T04:31:25.897Z,100559.06
2022-10-01T04:33:57.233Z,100568.75
2022-10-01T04:36:24.918Z,100567.16
2022-10-01T04:38:59.323Z,100563.97
2022-10-01T04:41:30.820Z,100564.50
2022-10-01T04:44:00.212Z,100562.72
2022-10-01T04:46:28.531Z,100566.19
2022-10-01T04:48:55.327Z,100562.53
2022-10-01T04:51:22.063Z,100554.38
2022-10-01T04:53:48.793Z,100558.84
2022-10-01T04:56:15.431Z,100561.44
2022-10-01T04:58:42.398Z,100552.56
2022-10-01T05:01:09.192Z,100558.03
2022-10-01T05:03:35.903Z,100547.72
2022-10-01T05:06:02.600Z,100544.78
2022-10-01T05:08:29.445Z,100543.91
2022-10-01T05:10:56.082Z,100541.34
2022-10-01T05:13:22.767Z,100544.78
2022-10-01T05:15:52.400Z,100532.88
2022-10-01T05:18:19.364Z,100546.44
2022-10-01T05:20:46.254Z,100544.25
2022-10-01T05:23:12.919Z,100532.72
2022-10-01T05:25:39.598Z,100529.59
2022-10-01T05:28:06.418Z,100532.25
2022-10-01T05:30:33.999Z,100539.22
2022-10-01T05:33:02.169Z,100537.72
2022-10-01T05:35:29.385Z,100527.59
2022-10-01T05:38:00.688Z,100530.84
2022-10-01T05:40:28.799Z,100530.25
2022-10-01T05:42:56.615Z,100525.13
2022-10-01T05:45:23.640Z,100524.13
2022-10-01T05:48:04.712Z,100512.59
2022-10-01T05:50:32.787Z,100507.13
2022-10-01T05:53:00.300Z,100504.69
2022-10-01T05:55:27.520Z,100495.44
2022-10-01T05:57:58.953Z,100493.59
2022-10-01T06:00:28.480Z,100480.22
2022-10-01T06:02:59.654Z,100479.38
2022-10-01T06:05:26.983Z,100478.63
2022-10-01T06:07:53.753Z,100474.41
2022-10-01T06:10:22.337Z,100470.56
2022-10-01T06:12:49.712Z,100472.34
2022-10-01T06:15:17.515Z,100471.72
2022-10-01T06:17:45.394Z,100470.09
2022-10-01T06:20:13.976Z,100467.56
2022-10-01T06:22:41.424Z,100455.63
2022-10-01T06:25:08.564Z,100455.50
2022-10-01T06:27:35.347Z,100456.66
2022-10-01T06:30:02.383Z,100459.56
2022-10-01T06:32:32.829Z,100455.53
2022-10-01T06:35:01.548Z,100458.00
2022-10-01T06:37:28.253Z,100459.09
2022-10-01T06:39:55.112Z,100452.31
2022-10-01T06:42:22.393Z,100449.84
2022-10-01T06:44:49.167Z,100444.34
2022-10-01T06:47:16.148Z,100439.72
2022-10-01T06:49:47.292Z,100426.00
2022-10-01T06:52:32.905Z,100422.88
2022-10-01T06:55:01.562Z,100425.38
2022-10-01T06:57:28.745Z,100419.78
2022-10-01T06:59:55.736Z,100420.06
2022-10-01T07:02:30.522Z,100416.09
2022-10-01T07:05:00.171Z,100418.38
2022-10-01T07:07:37.569Z,100426.56
2022-10-01T07:10:06.703Z,100421.13
2022-10-01T07:12:34.409Z,100413.38
2022-10-01T07:15:01.213Z,100402.22
2022-10-01T07:17:28.007Z,100399.97
2022-10-01T07:19:54.903Z,100395.22
2022-10-01T07:22:24.256Z,100384.94
2022-10-01T07:24:52.231Z,100387.34
2022-10-01T07:27:19.918Z,100381.34
2022-10-01T07:29:47.009Z,100370.22
2022-10-01T07:32:13.957Z,100372.25
2022-10-01T07:34:40.685Z,100365.44
2022-10-01T07:37:07.800Z,100363.72
2022-10-01T07:39:35.132Z,100364.19
2022-10-01T07:42:02.173Z,100354.28
2022-10-01T07:44:29.583Z,100357.56
2022-10-01T07:46:56.979Z,100354.28
2022-10-01T07:49:25.400Z,100349.63
2022-10-01T07:51:54.563Z,100358.81
2022-10-01T07:54:25.205Z,100354.97
2022-10-01T07:56:55.956Z,100339.78
2022-10-01T07:59:23.392Z,100348.97
2022-10-01T08:01:51.972Z,100334.28
2022-10-01T08:04:40.939Z,100333.13
2022-10-01T08:07:08.446Z,100330.22
2022-10-01T08:09:39.966Z,100331.63
2022-10-01T08:12:06.654Z,100330.91
2022-10-01T08:14:33.404Z,100319.63
2022-10-01T08:17:00.183Z,100323.09
2022-10-01T08:19:27.158Z,100312.13
2022-10-01T08:21:53.867Z,100320.59
2022-10-01T08:24:20.534Z,100315.66
2022-10-01T08:26:53.400Z,100315.47
2022-10-01T08:29:20.541Z,100311.66
2022-10-01T08:31:47.885Z,100308.28
2022-10-01T08:34:15.079Z,100316.66
2022-10-01T08:36:41.718Z,100310.34
2022-10-01T08:39:08.743Z,100305.34
2022-10-01T08:41:42.584Z,100303.13
2022-10-01T08:44:16.958Z,100302.75
2022-10-01T08:46:43.787Z,100301.88
2022-10-01T08:49:31.925Z,100297.84
2022-10-01T08:52:07.765Z,100282.69
2022-10-01T08:54:39.431Z,100286.78
2022-10-01T08:57:11.873Z,100279.06
2022-10-01T08:59:41.323Z,100268.53
2022-10-01T09:02:26.408Z,100269.16
2022-10-01T09:05:01.124Z,100270.59
2022-10-01T09:07:40.365Z,100251.78
2022-10-01T09:10:17.312Z,100248.25
2022-10-01T09:13:09.270Z,100244.31
2022-10-01T09:15:38.802Z,100235.38
2022-10-01T09:18:31.786Z,100234.22
2022-10-01T09:20:59.098Z,100229.97
2022-10-01T09:23:31.081Z,100227.25
2022-10-01T09:25:59.769Z,100226.63
2022-10-01T09:28:35.259Z,100226.22
2022-10-01T09:31:12.275Z,100224.84
2022-10-01T09:33:42.743Z,100224.84
2022-10-01T09:36:15.495Z,100216.34
2022-10-01T09:38:44.134Z,100219.28
2022-10-01T09:41:11.832Z,100214.00
2022-10-01T09:43:42.826Z,100209.50
2022-10-01T09:46:13.863Z,100202.88
2022-10-01T09:48:56.772Z,100198.34
2022-10-01T09:51:39.356Z,100185.13
2022-10-01T09:54:18.361Z,100174.03
2022-10-01T09:57:02.099Z,100192.91
2022-10-01T09:59:38.768Z,100179.53
2022-10-01T10:02:15.369Z,100178.53
2022-10-01T10:04:42.180Z,100180.25
2022-10-01T10:07:16.703Z,100184.44
2022-10-01T10:09:43.444Z,100178.16
2022-10-01T10:12:25.636Z,100182.22
2022-10-01T10:14:55.605Z,100183.31
2022-10-01T10:17:22.716Z,100186.03
2022-10-01T10:19:51.898Z,100179.94
2022-10-01T10:22:26.142Z,100169.88
2022-10-01T10:24:54.406Z,100173.94
2022-10-01T10:27:29.525Z,100175.50
2022-10-01T10:30:05.967Z,100175.94
2022-10-01T10:32:33.332Z,100178.34
2022-10-01T10:35:04.811Z,100169.53
2022-10-01T10:37:37.085Z,100167.16
2022-10-01T10:40:06.261Z,100172.13
2022-10-01T10:42:34.297Z,100161.00
2022-10-01T10:45:03.646Z,100152.72
2022-10-01T10:47:31.739Z,100137.09
2022-10-01T10:50:01.475Z,100137.50
2022-10-01T10:52:32.453Z,100144.19
2022-10-01T10:55:00.815Z,100164.50
2022-10-01T10:57:28.334Z,100156.28
2022-10-01T11:00:04.429Z,100158.09
2022-10-01T11:02:32.477Z,100156.13
2022-10-01T11:05:03.927Z,100144.53
2022-10-01T11:07:31.129Z,100139.97
2022-10-01T11:10:19.156Z,100143.53
2022-10-01T11:12:58.924Z,100137.00
2022-10-01T11:15:47.142Z,100140.72
2022-10-01T11:18:35.706Z,100134.09
2022-10-01T11:21:19.546Z,100140.97
2022-10-01T11:23:59.759Z,100124.81
2022-10-01T11:26:35.646Z,100127.41
2022-10-01T11:29:16.679Z,100121.41
2022-10-01T11:31:55.420Z,100121.03
2022-10-01T11:34:28.101Z,100125.75
2022-10-01T11:37:19.154Z,100119.44
2022-10-01T11:39:48.487Z,100127.69
2022-10-01T11:42:22.301Z,100117.44
2022-10-01T11:44:53.819Z,100125.59
2022-10-01T11:47:38.034Z,100132.22
2022-10-01T11:50:15.406Z,100120.50
2022-10-01T11:53:15.735Z,100113.53
2022-10-01T11:56:45.410Z,100126.13
2022-10-01T11:59:24.039Z,100114.06
2022-10-01T12:02:03.824Z,100119.16
2022-10-01T12:04:38.024Z,100117.66
2022-10-01T12:07:10.984Z,100115.94
2022-10-01T12:09:58.361Z,100114.13
2022-10-01T12:12:38.948Z,100107.69
2022-10-01T12:15:07.019Z,100125.84
2022-10-01T12:17:48.980Z,100126.31
2022-10-01T12:20:36.684Z,100116.56
2022-10-01T12:23:05.812Z,100118.94
2022-10-01T12:25:52.262Z,100108.19
2022-10-01T12:28:27.826Z,100112.66
2022-10-01T12:31:00.870Z,100110.28
2022-10-01T12:33:51.543Z,100102.06
2022-10-01T12:36:28.377Z,100117.16
2022-10-01T12:38:56.268Z,100104.41
2022-10-01T12:41:56.647Z,100115.00
2022-10-01T12:44:54.254Z,100113.63
2022-10-01T12:47:35.511Z,100102.78
2022-10-01T12:50:11.405Z,100096.91
2022-10-01T12:52:49.644Z,100100.78
2022-10-01T12:55:59.510Z,100100.28
2022-10-01T12:58:56.296Z,100110.44
2022-10-01T13:01:34.587Z,100099.75
2022-10-01T13:04:33.656Z,100106.09
2022-10-01T13:07:39.429Z,100102.34
2022-10-01T13:10:25.063Z,100109.00
2022-10-01T13:13:04.731Z,100104.53
2022-10-01T13:15:42.110Z,100113.88
2022-10-01T13:18:15.502Z,100113.59
2022-10-01T13:21:09.279Z,100107.56
2022-10-01T13:23:58.362Z,100103.91
2022-10-01T13:26:39.215Z,100094.81
2022-10-01T13:29:13.301Z,100104.16
2022-10-01T13:31:56.917Z,100105.00
2022-10-01T13:34:27.475Z,100099.06
2022-10-01T13:36:55.143Z,100095.50
2022-10-01T13:39:24.071Z,100099.28
2022-10-01T13:41:56.268Z,100103.91
2022-10-01T13:44:34.683Z,100100.47
2022-10-01T13:47:07.188Z,100100.47
2022-10-01T13:49:35.024Z,100094.41
2022-10-01T13:52:03.174Z,100091.72
2022-10-01T13:54:46.663Z,100093.75
2022-10-01T13:57:22.787Z,100099.81
2022-10-01T14:00:18.371Z,100104.56
2022-10-01T14:03:04.172Z,100104.53
2022-10-01T14:05:39.877Z,100109.53
2022-10-01T14:08:26.592Z,100099.34
2022-10-01T14:11:33.298Z,100095.31
2022-10-01T14:14:29.923Z,100099.47
2022-10-01T14:16:57.843Z,100094.66
2022-10-01T14:19:26.424Z,100096.53
2022-10-01T14:22:04.132Z,100089.03
2022-10-01T14:24:43.534Z,100082.38
2022-10-01T14:28:04.243Z,100086.66
2022-10-01T14:30:56.684Z,100086.63
2022-10-01T14:33:44.145Z,100088.81
2022-10-01T14:36:42.484Z,100088.25
2022-10-01T14:39:18.662Z,100092.81
2022-10-01T14:41:46.763Z,100092.94
2022-10-01T14:44:31.791Z,100088.97
2022-10-01T14:47:00.359Z,100087.25
2022-10-01T14:49:32.426Z,100086.97
2022-10-01T14:52:01.567Z,100084.72
2022-10-01T14:54:29.401Z,100090.25
2022-10-01T14:56:56.104Z,100093.94
2022-10-01T14:59:43.041Z,100093.72
2022-10-01T15:02:24.039Z,100097.06
2022-10-01T15:04:53.398Z,100095.00
2022-10-01T15:07:20.322Z,100099.44
2022-10-01T15:09:47.963Z,100090.97
2022-10-01T15:12:16.445Z,100102.28
2022-10-01T15:14:43.841Z,100098.47
2022-10-01T15:17:20.786Z,100098.06
2022-10-01T15:19:52.278Z,100098.63
2022-10-01T15:22:25.368Z,100104.00
2022-10-01T15:24:53.647Z,100106.25
2022-10-01T15:27:21.312Z,100103.00
2022-10-01T15:29:56.075Z,100106.59
2022-10-01T15:32:24.558Z,100112.84
2022-10-01T15:34:57.264Z,100110.66
2022-10-01T15:37:28.754Z,100104.19
2022-10-01T15:39:56.244Z,100118.00
2022-10-01T15:42:28.662Z,100106.88
2022-10-01T15:45:22.137Z,100104.88
2022-10-01T15:47:51.863Z,100114.81
2022-10-01T15:50:27.630Z,100109.56
2022-10-01T15:53:06.533Z,100108.84
2022-10-01T15:55:40.321Z,100108.41
2022-10-01T15:58:10.044Z,100108.00
2022-10-01T16:00:54.065Z,100109.63
2022-10-01T16:03:43.188Z,100120.19
2022-10-01T16:06:40.100Z,100114.03
2022-10-01T16:09:24.007Z,100109.72
2022-10-01T16:12:18.627Z,100118.34
2022-10-01T16:15:30.313Z,100118.16
2022-10-01T16:17:58.812Z,100120.00
2022-10-01T16:20:34.524Z,100128.44
2022-10-01T16:23:48.243Z,100117.59
2022-10-01T16:26:30.294Z,100122.31
2022-10-01T16:28:58.996Z,100127.69
2022-10-01T16:31:25.843Z,100137.19
2022-10-01T16:33:52.960Z,100134.59
2022-10-01T16:36:20.899Z,100142.81
2022-10-01T16:38:48.342Z,100145.75
2022-10-01T16:41:20.048Z,100156.16
2022-10-01T16:43:46.901Z,100148.84
2022-10-01T16:46:13.735Z,100150.75
2022-10-01T16:48:40.625Z,100155.97
2022-10-01T16:51:07.534Z,100156.59
2022-10-01T16:53:34.301Z,100156.59
2022-10-01T16:56:01.415Z,100159.69
2022-10-01T16:58:28.421Z,100160.56
2022-10-01T17:00:55.318Z,100158.59
2022-10-01T17:03:22.761Z,100162.03
2022-10-01T17:05:50.114Z,100159.63
2022-10-01T17:08:17.286Z,100164.00
2022-10-01T17:10:51.358Z,100162.28
2022-10-01T17:13:18.153Z,100164.75
2022-10-01T17:15:44.886Z,100163.56
2022-10-01T17:18:12.334Z,100166.84
2022-10-01T17:20:39.832Z,100161.91
2022-10-01T17:23:06.531Z,100162.75
2022-10-01T17:25:35.873Z,100159.38
2022-10-01T17:28:14.035Z,100164.16
2022-10-01T17:30:43.435Z,100169.06
2022-10-01T17:33:11.878Z,100167.88
2022-10-01T17:35:43.693Z,100162.97
2022-10-01T17:38:11.553Z,100171.09
2022-10-01T17:40:42.728Z,100163.94
2022-10-01T17:43:14.122Z,100173.63
2022-10-01T17:45:41.916Z,100177.81
2022-10-01T17:48:09.932Z,100167.09
2022-10-01T17:50:43.816Z,100178.16
2022-10-01T17:53:14.774Z,100184.38
2022-10-01T17:55:42.357Z,100180.03
2022-10-01T17:58:10.121Z,100178.75
2022-10-01T18:00:41.168Z,100182.22
2022-10-01T18:03:08.097Z,100194.28
2022-10-01T18:05:34.829Z,100205.91
2022-10-01T18:08:02.578Z,100206.50
2022-10-01T18:10:29.432Z,100216.06
2022-10-01T18:12:57.786Z,100205.75
2022-10-01T18:15:24.541Z,100213.25
2022-10-01T18:18:33.995Z,100218.03
2022-10-01T18:20:40.924Z,100225.13
2022-10-01T18:23:07.720Z,100226.69
2022-10-01T18:25:34.480Z,100234.78
2022-10-01T18:28:01.597Z,100239.88
2022-10-01T18:30:28.497Z,100236.50
2022-10-01T18:32:57.216Z,100247.53
2022-10-01T18:35:33.689Z,100268.53
2022-10-01T18:38:14.959Z,100258.53
2022-10-01T18:40:43.678Z,100263.31
2022-10-01T18:43:24.264Z,100276.38
2022-10-01T18:46:03.910Z,100283.34
2022-10-01T18:48:42.599Z,100288.59
2022-10-01T18:51:25.995Z,100296.78
2022-10-01T18:54:06.221Z,100297.00
2022-10-01T18:56:37.920Z,100302.38
2022-10-01T18:59:27.871Z,100316.56
2022-10-01T19:01:57.366Z,100315.28
2022-10-01T19:04:40.054Z,100325.84
2022-10-01T19:07:28.114Z,100318.19
2022-10-01T19:10:14.842Z,100333.16
2022-10-01T19:13:06.050Z,100337.63
2022-10-01T19:15:54.188Z,100344.63
2022-10-01T19:18:56.871Z,100352.81
2022-10-01T19:21:35.662Z,100360.84
2022-10-01T19:24:11.485Z,100356.75
2022-10-01T19:27:04.851Z,100371.59
2022-10-01T19:30:00.912Z,100373.06
2022-10-01T19:32:34.003Z,100380.75
2022-10-01T19:35:06.954Z,100375.50
2022-10-01T19:37:39.858Z,100373.22
2022-10-01T19:40:25.577Z,100378.06
2022-10-01T19:43:01.411Z,100384.38
2022-10-01T19:45:46.795Z,100384.94
2022-10-01T19:48:45.094Z,100386.50
2022-10-01T19:51:13.818Z,100390.22
2022-10-01T19:53:47.184Z,100396.34
2022-10-01T19:56:22.600Z,100401.78
2022-10-01T19:58:49.319Z,100402.66
2022-10-01T20:01:20.264Z,100402.16
2022-10-01T20:04:21.398Z,100406.91
2022-10-01T20:07:00.793Z,100410.97
2022-10-01T20:09:29.476Z,100416.19
2022-10-01T20:12:18.135Z,100419.97
2022-10-01T20:15:11.736Z,100431.72
2022-10-01T20:17:54.871Z,100427.44
2022-10-01T20:20:59.379Z,100440.16
2022-10-01T20:23:35.325Z,100445.41
2022-10-01T20:26:26.013Z,100450.16
2022-10-01T20:29:26.934Z,100450.94
2022-10-01T20:32:07.151Z,100459.16
2022-10-01T20:34:49.025Z,100456.25
2022-10-01T20:37:40.532Z,100465.75
2022-10-01T20:40:29.023Z,100472.28
2022-10-01T20:43:07.487Z,100483.78
2022-10-01T20:45:35.572Z,100483.91
2022-10-01T20:48:42.955Z,100489.88
2022-10-01T20:51:17.462Z,100480.91
2022-10-01T20:53:57.339Z,100488.88
2022-10-01T20:56:43.459Z,100491.63
2022-10-01T20:59:22.150Z,100494.16
2022-10-01T21:02:02.620Z,100498.88
2022-10-01T21:04:33.902Z,100501.13
2022-10-01T21:07:14.375Z,100496.50
2022-10-01T21:09:46.860Z,100501.16
2022-10-01T21:12:18.846Z,100524.28
2022-10-01T21:14:53.359Z,100519.94
2022-10-01T21:17:26.034Z,100524.25
2022-10-01T21:19:58.745Z,100523.34
2022-10-01T21:22:43.697Z,100534.25
2022-10-01T21:25:16.957Z,100543.47
2022-10-01T21:27:58.868Z,100546.94
2022-10-01T21:30:25.637Z,100539.91
2022-10-01T21:33:06.433Z,100556.09
2022-10-01T21:35:38.159Z,100556.50
2022-10-01T21:38:32.296Z,100554.47
2022-10-01T21:41:24.563Z,100555.75
2022-10-01T21:44:19.142Z,100567.00
2022-10-01T21:46:53.357Z,100566.84
2022-10-01T21:49:33.875Z,100574.34
2022-10-01T21:52:11.022Z,100586.69
2022-10-01T21:54:44.744Z,100587.59
2022-10-01T21:57:48.492Z,100596.47
2022-10-01T22:00:23.379Z,100595.72
2022-10-01T22:03:02.374Z,100590.84
2022-10-01T22:05:51.192Z,100602.00
2022-10-01T22:08:27.204Z,100604.75
2022-10-01T22:11:01.798Z,100609.69
2022-10-01T22:13:32.833Z,100616.03
2022-10-01T22:16:03.437Z,100619.84
2022-10-01T22:18:41.195Z,100623.59
2022-10-01T22:21:12.156Z,100640.22
2022-10-01T22:23:42.249Z,100633.47
2022-10-01T22:26:14.554Z,100637.69
2022-10-01T22:28:42.870Z,100643.34
2022-10-01T22:31:15.799Z,100650.31
2022-10-01T22:34:04.456Z,100655.00
2022-10-01T22:36:36.806Z,100669.09
2022-10-01T22:39:08.402Z,100673.63
2022-10-01T22:41:59.452Z,100668.28
2022-10-01T22:44:27.995Z,100674.69
2022-10-01T22:47:00.861Z,100677.25
2022-10-01T22:49:55.801Z,100684.50
2022-10-01T22:52:44.390Z,100688.84
2022-10-01T22:55:32.867Z,100688.47
2022-10-01T22:58:14.847Z,100692.75
2022-10-01T23:00:56.383Z,100690.72
2022-10-01T23:03:25.993Z,100691.28
2022-10-01T23:06:06.591Z,100700.09
2022-10-01T23:08:58.514Z,100701.00
2022-10-01T23:11:29.700Z,100706.19
2022-10-01T23:14:22.315Z,100718.53
2022-10-01T23:17:11.672Z,100713.06
2022-10-01T23:19:59.750Z,100719.31
2022-10-01T23:22:37.151Z,100720.34
2022-10-01T23:25:19.728Z,100722.56
2022-10-01T23:27:52.745Z,100717.28
2022-10-01T23:30:20.481Z,100734.50
2022-10-01T23:33:02.758Z,100722.25
2022-10-01T23:35:52.848Z,100724.88
2022-10-01T23:38:36.616Z,100734.00
2022-10-01T23:41:11.665Z,100741.47
2022-10-01T23:43:43.877Z,100741.41
2022-10-01T23:46:23.971Z,100752.75
2022-10-01T23:48:56.283Z,100749.03
2022-10-01T23:51:25.898Z,100745.28
2022-10-01T23:54:15.458Z,100752.16
2022-10-01T23:56:52.489Z,100746.50
2022-10-01T23:59:29.349Z,100759.81
